Weather at Carlisle Airport

Public forecast

Using degrees Celsius for public forecast. Weather courtesy of forecast.io.

Closest aviation weather report (METAR) to Carlisle Airport

Closest report is RAF Spadeadam, 11.2 nm (20.7 km) NE.

2023/02/04 14:20 (retrieved 31 minutes ago)

EGOM 041420Z AUTO 23015KT 9999 OVC027/// 07/04 Q1031

Closest aviation forecast (TAF) to Carlisle Airport

Closest forecast is Newcastle Airport, 39.0 nm (72.2 km) E.

2023/02/04 12:00 (retrieved 3 hours ago)

TAF EGNT 041059Z 0412/0512 22008KT 9999 SCT035 TEMPO 0417/0420 6000 RA -RADZ BKN014 BECMG 0418/0421 30010KT BECMG 0506/0509 22004KT